CheckWX is a tool to help pilots better visualize weather data.  It is not intended as a substitute for an official pre-flight weather briefing.

08:02:24 UTC

UTAK TAF
Turkmenbashi
Krasnovodsk
TAF UTAK 190430Z 1906/2006 33026G36KT 3000 -RA BR BKN007 SCT023CB OVC100 530006 TEMPO 1906/1909 2000 SHRA OVC004 TEMPO 1909/1912 32028G38KT BKN006

Mar-19@
06:00 UTC

Mar-19 @ 06:00 UTC

Mar-20@
06:00 UTC

Mar-20 @ 06:00 UTC

TAF UTAK 190430Z 1906/2006 33026G36KT 3000 -RA BR BKN007 SCT023CB OVC100 530006
Wind
  • 330° at 26 KTS
  • {Gusting to 36 KTS
Conditions
Light Rain, Mist
Cloud Levels
  • Broken at 700' AGL
  • Scattered at 2,300' AGL
  • Overcast at 10,000' AGL
Turbulence
< Frequent moderate clear air turbulence expected at the surface extending to 6,000' AGL

Mar-19@
06:00 UTC

Mar-19 @ 06:00 UTC

Mar-19@
09:00 UTC

Mar-19 @ 09:00 UTC

TEMPO 1906/1909 2000 SHRA OVC004

Temporary

Temporary Changes expected for less than half the time period

Conditions
Rain
Cloud Levels
  • Overcast at 400' AGL

Mar-19@
09:00 UTC

Mar-19 @ 09:00 UTC

Mar-19@
12:00 UTC

Mar-19 @ 12:00 UTC

TEMPO 1909/1912 32028G38KT BKN006

Temporary

Temporary Changes expected for less than half the time period

Wind
  • 320° at 28 KTS
  • {Gusting to 38 KTS
Cloud Levels
  • Broken at 600' AGL